Phillips, ME (04966)

9:17 AM EST on December 11, 2019 (GMT -0500)
Toothaker Pond | | Change Station

Elev 820 ft 44.87 °N, 70.40 °W | Updated 18 seconds ago

Partly Cloudy
Partly Cloudy
22.1 °F
Feels Like 22 °F
N
3
Wind Variable Wind from West
Gusts 4.0 mph

Today
High -- | Low -- °F
--% Chance of Precip.
Yesterday
High -- | Low -- °F
Precip. -- in
Pressure 30.27 in
Visibility 10.0 miles
Clouds Scattered Clouds 9000 ft
Windchill 22 °F
Dew Point 12 °F
Humidity 63%
Rainfall 0.00 in
Snow Depth Not available.
7:08 AM 4:00 PM
Full, 100% visible
METAR KWVL 111356Z AUTO 02006KT 10SM SCT090 M03/M11 A3018 RMK AO2 SLP251 T10331111 FZRANO
Pressure 30.27 in
Visibility 10.0 miles
Clouds Scattered Clouds 9000 ft
Windchill 22 °F
Dew Point 12 °F
Humidity 63%
Rainfall 0.00 in
Snow Depth Not available.
7:08 AM 4:00 PM
Full, 100% visible
METAR KWVL 111356Z AUTO 02006KT 10SM SCT090 M03/M11 A3018 RMK AO2 SLP251 T10331111 FZRANO

Get Severe Weather Alerts

Thanks for signing up!

Be on the lookout for a verification email in your inbox.

You'll start receiving the daily forecast at 6 AM.

×

10-Day Weather Forecast

Almanac

Astronomy

Dec. 11, 2019 Rise Set
Actual Time
Civil Twilight
Nautical Twilight
Astronomical Twilight
Moon
Length of Visible Light
Length of Day
Tomorrow will be .
, % of the Moon is Illuminated

Today's Extremes

State Highs State Lows

Community

WunderPhotos

Category 6

Welcome to Category 6. This is the collective home for Weather Underground's featured writeups by Dr. Jeff Masters (right), Bob Henson (left), Chris Burt, and other regular contributors.

Nearby

Air Quality

  Air Quality AQ Index Pollutant
Not available.

Snow Depth

Station Depth Elevation

Earthquake Activity

City Distance Mag. Time & Date
Minimum magnitude displayed is 2.5.

Coastal Water Temperatures

Place Temperature

Stations

Nearby Weather Stations

Station Location Temp. Windchill Dew Point Humidity Wind Precip. Elev Updated Type
                   

Watches & Warnings

There are currently no watches in effect.